Time;durP1;ratioP1;P1;durP2;ratioP2;P2;SDS_P1;SDS_P2;PMS_P1;PMS_P2;Temp;Humidity;BMP_temperature;BMP_pressure;BME280_temperature;BME280_humidity;BME280_pressure;Samples;Min_cycle;Max_cycle;Signal;HPM_P1;HPM_P2
2022/02/12 00:00:20;;;;;;;2.70;1.08;;;;;;;2.31;52.67;99290.63;5070706;28;20067;-54
2022/02/12 00:02:46;;;;;;;3.17;1.10;;;;;;;2.30;53.26;99296.84;5070886;28;20028;-53
2022/02/12 00:05:14;;;;;;;4.85;1.02;;;;;;;2.27;52.88;99289.09;5070434;28;20077;-55
2022/02/12 00:07:40;;;;;;;5.63;0.90;;;;;;;2.23;52.92;99290.22;5069979;28;20036;-56
2022/02/12 00:10:06;;;;;;;4.35;0.90;;;;;;;2.26;53.33;99293.53;5070829;28;20036;-55
2022/02/12 00:12:31;;;;;;;3.88;1.30;;;;;;;2.25;53.74;99293.63;5070878;28;20035;-55
2022/02/12 00:14:57;;;;;;;2.78;0.85;;;;;;;2.23;53.46;99300.78;5070228;28;20028;-52
2022/02/12 00:17:24;;;;;;;6.85;1.00;;;;;;;2.22;53.56;99293.78;5070022;28;20456;-55
2022/02/12 00:19:49;;;;;;;3.42;1.10;;;;;;;2.20;53.96;99299.16;5071039;28;20047;-53
2022/02/12 00:22:15;;;;;;;5.07;1.15;;;;;;;2.19;53.64;99300.09;5070658;28;20397;-50
2022/02/12 00:24:41;;;;;;;2.03;0.90;;;;;;;2.18;54.04;99297.53;5052189;28;20376;-52
2022/02/12 00:27:07;;;;;;;2.42;1.00;;;;;;;2.17;54.07;99298.44;5070198;28;20028;-49
2022/02/12 00:29:32;;;;;;;5.60;1.17;;;;;;;2.16;54.01;99300.25;5070316;28;20037;-48
2022/02/12 00:31:58;;;;;;;1.70;0.95;;;;;;;2.13;54.26;99288.06;5070362;28;20040;-55
2022/02/12 00:34:23;;;;;;;4.13;0.70;;;;;;;1.65;54.14;99205.31;5069777;28;20043;-56
2022/02/12 00:36:49;;;;;;;6.25;1.20;;;;;;;2.15;54.16;99288.81;5070265;28;20108;-56
2022/02/12 00:39:15;;;;;;;2.47;1.00;;;;;;;2.02;53.48;99271.97;5070412;28;20028;-51
2022/02/12 00:41:40;;;;;;;4.35;1.08;;;;;;;2.23;52.99;99303.41;5069897;28;20392;-53
2022/02/12 00:44:06;;;;;;;5.00;1.27;;;;;;;2.23;53.02;99295.50;5069665;28;20037;-53
2022/02/12 00:46:32;;;;;;;3.17;1.08;;;;;;;2.20;53.33;99295.66;5070022;28;20028;-54
2022/02/12 00:48:57;;;;;;;4.32;1.20;;;;;;;2.21;53.16;99297.38;5069859;28;20036;-55
2022/02/12 00:51:22;;;;;;;1.92;0.90;;;;;;;2.17;53.60;99283.47;5070161;28;20477;-53
2022/02/12 00:53:48;;;;;;;2.63;1.00;;;;;;;2.17;52.75;99298.44;5070093;28;20021;-53
2022/02/12 00:56:13;;;;;;;2.92;1.00;;;;;;;2.15;53.38;99288.81;5073509;28;20060;-52
2022/02/12 00:58:39;;;;;;;5.50;1.33;;;;;;;2.18;53.20;99302.81;5073544;28;20450;-52
2022/02/12 01:01:05;;;;;;;3.47;0.80;;;;;;;2.17;53.46;99290.53;5073445;28;20461;-54
2022/02/12 01:03:31;;;;;;;4.47;1.00;;;;;;;2.14;53.75;99291.56;5073297;28;20028;-53
2022/02/12 01:05:57;;;;;;;2.88;0.93;;;;;;;2.17;53.43;99309.00;5073020;28;20052;-54
2022/02/12 01:08:23;;;;;;;3.95;1.00;;;;;;;2.06;53.64;99286.69;5073785;28;20029;-54
2022/02/12 01:10:49;;;;;;;3.17;0.90;;;;;;;2.18;53.59;99305.47;5072676;28;20031;-51
2022/02/12 01:13:14;;;;;;;6.32;1.25;;;;;;;2.18;53.41;99313.38;5073132;28;20135;-55
2022/02/12 01:15:40;;;;;;;4.47;0.98;;;;;;;2.20;53.87;99316.81;5072928;28;20458;-50
2022/02/12 01:18:06;;;;;;;3.92;1.20;;;;;;;2.17;54.08;99298.44;5054760;28;20052;-57
2022/02/12 01:20:31;;;;;;;2.90;0.80;;;;;;;2.22;53.56;99305.19;5072475;28;20041;-54
2022/02/12 01:22:57;;;;;;;5.53;0.93;;;;;;;2.25;54.14;99314.75;5072812;28;20063;-55
2022/02/12 01:25:22;;;;;;;4.43;1.00;;;;;;;2.25;53.23;99315.59;5072923;28;20028;-52
2022/02/12 01:27:48;;;;;;;7.60;1.20;;;;;;;2.25;53.78;99314.75;5072933;28;20059;-58
2022/02/12 01:30:14;;;;;;;2.25;0.90;;;;;;;2.27;54.14;99307.59;5072886;28;20051;-55
2022/02/12 01:32:40;;;;;;;2.55;0.75;;;;;;;2.26;53.53;99306.72;5072282;28;20029;-53
2022/02/12 01:35:10;;;;;;;3.58;0.77;;;;;;;2.28;53.75;99309.31;5054947;28;20461;-53
2022/02/12 01:37:37;;;;;;;3.60;0.80;;;;;;;2.29;54.29;99305.72;5072800;28;20040;-49
2022/02/12 01:40:04;;;;;;;3.65;1.00;;;;;;;2.30;54.04;99304.78;5072869;28;20063;-54
2022/02/12 01:42:29;;;;;;;3.75;1.17;;;;;;;2.24;54.04;99297.19;5072326;28;20074;-49
2022/02/12 01:44:55;;;;;;;1.63;0.95;;;;;;;2.24;54.08;99308.59;5072335;28;20032;-54
2022/02/12 01:47:21;;;;;;;5.60;1.52;;;;;;;2.07;54.00;99290.19;5072644;28;20107;-53
2022/02/12 01:49:47;;;;;;;4.28;1.10;;;;;;;2.14;54.39;99304.78;5073111;28;20033;-54
2022/02/12 01:52:13;;;;;;;3.30;0.90;;;;;;;2.07;54.90;99306.88;5071856;28;20039;-51
2022/02/12 01:54:40;;;;;;;3.90;1.10;;;;;;;2.06;54.56;99305.19;5072188;28;20028;-55
2022/02/12 01:57:07;;;;;;;2.47;0.98;;;;;;;2.09;54.49;99309.47;5072997;28;20029;-53
2022/02/12 01:59:34;;;;;;;2.83;1.13;;;;;;;2.09;54.92;99325.31;5071950;28;20039;-49
2022/02/12 02:02:00;;;;;;;4.93;1.00;;;;;;;2.02;55.23;99306.28;5071826;28;20107;-52
2022/02/12 02:04:26;;;;;;;3.85;0.93;;;;;;;1.89;54.68;99287.59;5072609;28;20671;-52
2022/02/12 02:06:52;;;;;;;2.85;1.08;;;;;;;1.80;54.98;99275.75;5071979;28;20060;-51
2022/02/12 02:09:19;;;;;;;7.05;1.17;;;;;;;2.13;55.01;99327.66;5072150;28;20045;-52
2022/02/12 02:11:48;;;;;;;5.00;0.98;;;;;;;2.25;54.38;99327.97;5072112;28;20039;-53
2022/02/12 02:14:15;;;;;;;4.47;1.27;;;;;;;2.21;55.87;99329.91;5072096;28;20033;-51
2022/02/12 02:16:42;;;;;;;3.85;1.20;;;;;;;2.19;56.95;99333.59;5072148;28;20040;-52
2022/02/12 02:19:08;;;;;;;2.10;1.17;;;;;;;1.90;57.41;99296.38;5072203;28;20036;-55
2022/02/12 02:21:39;;;;;;;3.45;1.10;;;;;;;1.97;58.02;99321.53;5071880;28;20041;-52
2022/02/12 02:24:05;;;;;;;3.72;1.00;;;;;;;1.86;58.77;99327.38;5071864;28;20047;-50
2022/02/12 02:26:36;;;;;;;3.97;1.33;;;;;;;1.81;58.82;99324.97;5072070;28;20031;-52
2022/02/12 02:29:02;;;;;;;3.67;0.98;;;;;;;1.74;58.75;99336.78;5071396;28;20028;-55
2022/02/12 02:31:28;;;;;;;4.45;1.17;;;;;;;1.62;58.83;99318.94;5071654;28;20116;-48
2022/02/12 02:33:53;;;;;;;2.80;0.85;;;;;;;1.68;59.24;99332.66;5071828;28;20111;-56
2022/02/12 02:36:19;;;;;;;2.78;1.02;;;;;;;1.69;58.63;99330.91;5072399;28;20112;-53
2022/02/12 02:38:44;;;;;;;6.05;1.10;;;;;;;1.68;58.28;99342.34;5071327;28;20153;-52
2022/02/12 02:41:10;;;;;;;4.30;1.08;;;;;;;1.58;58.50;99327.00;5070999;28;20385;-50
2022/02/12 02:43:37;;;;;;;4.78;1.42;;;;;;;1.57;58.47;99341.13;5071895;28;20028;-51
2022/02/12 02:46:05;;;;;;;2.67;1.00;;;;;;;1.55;58.57;99350.06;5071347;28;20046;-52
2022/02/12 02:48:31;;;;;;;3.38;1.00;;;;;;;1.53;58.21;99344.88;5070785;28;20677;-56
2022/02/12 02:56:24;;;;;;;2.75;0.90;;;;;;;1.70;58.96;99353.72;5053414;28;20382;-49
2022/02/12 02:58:59;;;;;;;4.50;1.25;;;;;;;1.55;58.85;99327.19;5071071;28;20057;-50
2022/02/12 03:01:27;;;;;;;3.25;0.80;;;;;;;1.86;58.74;99369.63;5070908;28;20032;-52
2022/02/12 03:03:53;;;;;;;7.40;1.20;;;;;;;1.90;58.82;99373.78;5071708;28;20031;-54
2022/02/12 03:06:24;;;;;;;2.90;1.05;;;;;;;1.82;58.90;99361.00;5071061;28;20028;-53
2022/02/12 03:08:50;;;;;;;3.25;1.05;;;;;;;1.83;59.64;99367.13;5070994;28;20378;-55
2022/02/12 03:11:16;;;;;;;4.15;1.20;;;;;;;1.84;60.31;99374.13;5070272;28;20047;-54
2022/02/12 03:13:44;;;;;;;3.22;1.10;;;;;;;1.82;60.52;99371.53;5070507;28;20024;-52
2022/02/12 03:16:10;;;;;;;2.88;1.10;;;;;;;1.72;60.98;99360.59;5070634;28;20524;-51
2022/02/12 03:18:38;;;;;;;3.85;1.55;;;;;;;1.78;61.14;99384.97;5070631;28;20029;-57
2022/02/12 03:21:03;;;;;;;5.07;1.23;;;;;;;1.76;61.29;99374.50;5070422;28;20033;-55
2022/02/12 03:23:29;;;;;;;4.53;1.27;;;;;;;1.71;62.42;99385.28;5070771;28;20032;-54
2022/02/12 03:25:55;;;;;;;1.98;0.98;;;;;;;1.68;62.22;99374.03;5070749;28;20040;-52
2022/02/12 03:28:20;;;;;;;4.47;0.95;;;;;;;1.72;62.22;99373.81;5070873;28;20024;-55
2022/02/12 03:30:46;;;;;;;2.78;1.30;;;;;;;1.74;62.45;99378.16;5070403;28;20040;-52
2022/02/12 03:33:12;;;;;;;4.15;1.15;;;;;;;1.76;62.39;99379.78;5070275;28;20436;-54
2022/02/12 03:35:37;;;;;;;2.92;1.13;;;;;;;1.78;62.62;99383.19;5070703;28;20116;-50
2022/02/12 03:38:12;;;;;;;4.97;1.30;;;;;;;1.81;62.22;99376.88;5070702;28;20108;-55
2022/02/12 03:40:40;;;;;;;4.45;1.15;;;;;;;1.82;62.08;99378.63;5069815;28;20031;-54
2022/02/12 03:43:06;;;;;;;4.47;1.00;;;;;;;1.83;62.16;99381.16;5070473;28;20040;-55
2022/02/12 03:45:32;;;;;;;5.00;1.13;;;;;;;1.81;62.09;99379.53;5071103;28;20526;-55
2022/02/12 03:47:58;;;;;;;3.25;1.13;;;;;;;1.80;62.05;99383.97;5070362;28;20401;-55
2022/02/12 03:50:24;;;;;;;5.00;1.55;;;;;;;1.79;61.96;99382.25;5070739;28;20476;-56
2022/02/12 03:52:50;;;;;;;3.05;1.08;;;;;;;1.68;62.50;99368.75;5070724;28;20040;-53
2022/02/12 03:55:18;;;;;;;5.97;1.58;;;;;;;1.75;62.57;99385.13;5070430;28;20104;-55
2022/02/12 03:57:44;;;;;;;4.40;1.35;;;;;;;1.68;62.22;99382.81;5070261;28;20028;-55
2022/02/12 04:00:13;;;;;;;4.38;1.45;;;;;;;1.64;62.51;99377.75;5070914;28;20032;-55
2022/02/12 04:02:43;;;;;;;3.90;1.40;;;;;;;1.60;62.34;99366.53;5070490;28;20055;-55
2022/02/12 04:05:15;;;;;;;6.90;1.60;;;;;;;1.75;61.95;99382.50;5070320;28;20043;-54
2022/02/12 04:07:44;;;;;;;3.42;1.60;;;;;;;1.70;61.79;99373.03;5070198;28;20051;-55
2022/02/12 04:10:16;;;;;;;4.20;1.33;;;;;;;1.72;62.07;99383.53;5070690;28;20135;-52
2022/02/12 04:12:43;;;;;;;6.70;1.50;;;;;;;1.67;62.33;99394.31;5051824;28;20027;-53
2022/02/12 04:15:10;;;;;;;5.60;1.50;;;;;;;1.65;61.92;99377.69;5069958;28;20040;-55
2022/02/12 04:17:36;;;;;;;6.25;1.92;;;;;;;1.62;61.75;99380.50;5070426;28;20087;-52
2022/02/12 04:20:15;;;;;;;4.03;1.25;;;;;;;1.58;62.15;99390.34;5067953;28;20036;-56
2022/02/12 04:22:41;;;;;;;4.35;1.60;;;;;;;1.59;62.02;99396.50;5070210;28;20179;-51
2022/02/12 04:25:10;;;;;;;3.38;1.20;;;;;;;1.60;62.17;99392.03;5069117;28;20089;-51
2022/02/12 04:27:35;;;;;;;6.55;1.30;;;;;;;1.57;61.80;99387.78;5070399;28;20059;-50
2022/02/12 04:30:03;;;;;;;7.22;1.58;;;;;;;1.49;61.94;99379.41;5072517;28;20036;-57
2022/02/12 04:32:29;;;;;;;3.95;1.30;;;;;;;1.50;62.36;99391.66;5074089;28;20060;-53
2022/02/12 04:34:55;;;;;;;4.57;1.52;;;;;;;1.51;62.36;99403.91;5073668;28;20546;-54
2022/02/12 04:37:22;;;;;;;4.97;1.20;;;;;;;1.43;62.46;99388.47;5073766;28;20036;-55
2022/02/12 04:39:48;;;;;;;5.88;1.50;;;;;;;1.31;61.93;99383.81;5074230;28;20074;-55
2022/02/12 04:42:16;;;;;;;1.88;1.05;;;;;;;1.49;61.82;99405.78;5056056;28;20068;-52
2022/02/12 04:44:43;;;;;;;5.88;1.70;;;;;;;1.47;61.55;99408.50;5072907;28;20052;-53
2022/02/12 04:47:09;;;;;;;4.35;1.30;;;;;;;1.47;62.16;99402.38;5073762;28;20033;-55
2022/02/12 04:49:35;;;;;;;5.40;1.27;;;;;;;1.48;62.50;99410.22;5073998;28;20448;-54
2022/02/12 04:52:02;;;;;;;3.97;1.23;;;;;;;1.49;62.28;99414.56;5073692;28;20078;-54
2022/02/12 04:54:28;;;;;;;4.05;1.38;;;;;;;1.51;61.99;99407.41;5073670;28;20047;-51
2022/02/12 04:56:54;;;;;;;4.15;1.33;;;;;;;1.39;61.75;99381.63;5073443;28;20032;-51
2022/02/12 04:59:19;;;;;;;4.20;1.20;;;;;;;1.54;61.58;99406.41;5074092;28;20043;-54
2022/02/12 05:01:45;;;;;;;3.70;1.30;;;;;;;1.56;61.34;99413.31;5073216;28;20021;-58
2022/02/12 05:04:10;;;;;;;3.58;1.20;;;;;;;1.63;61.40;99428.84;5073142;28;20473;-58
2022/02/12 05:06:36;;;;;;;6.82;1.30;;;;;;;1.66;61.69;99426.03;5072919;28;20500;-58
2022/02/12 05:09:02;;;;;;;4.85;1.30;;;;;;;1.62;61.83;99424.50;5073001;28;20140;-55
2022/02/12 05:11:28;;;;;;;3.80;1.38;;;;;;;1.69;61.49;99434.66;5073556;28;20112;-51
2022/02/12 05:13:53;;;;;;;3.80;1.10;;;;;;;1.73;61.88;99435.38;5072800;28;20067;-53
2022/02/12 05:16:19;;;;;;;2.38;1.33;;;;;;;1.52;61.43;99390.66;5072637;28;20053;-51
2022/02/12 05:18:45;;;;;;;9.48;1.42;;;;;;;1.79;61.11;99434.19;5073180;28;20525;-53
2022/02/12 05:21:10;;;;;;;4.25;1.35;;;;;;;1.83;61.29;99436.59;5073070;28;20119;-56
2022/02/12 05:23:36;;;;;;;3.58;1.05;;;;;;;1.89;61.00;99443.38;5073308;28;20039;-54
2022/02/12 05:26:02;;;;;;;6.03;1.40;;;;;;;1.90;60.56;99437.16;5072293;28;20436;-55
2022/02/12 05:28:27;;;;;;;3.72;1.40;;;;;;;1.94;60.72;99441.34;5071617;28;20036;-53
2022/02/12 05:30:53;;;;;;;5.25;1.25;;;;;;;1.96;60.73;99443.91;5053231;28;20032;-53
2022/02/12 05:33:18;;;;;;;3.65;1.42;;;;;;;1.95;61.10;99442.22;5068983;28;20021;-51
2022/02/12 05:35:44;;;;;;;4.47;1.30;;;;;;;1.95;60.67;99436.94;5071158;28;20071;-54
2022/02/12 05:38:09;;;;;;;2.00;0.93;;;;;;;1.95;61.11;99453.59;5071763;28;20170;-49
2022/02/12 05:40:35;;;;;;;3.58;1.35;;;;;;;1.97;61.08;99453.53;5070715;28;20513;-50
2022/02/12 05:43:02;;;;;;;3.60;1.50;;;;;;;1.93;60.96;99446.69;5071555;28;20036;-50
2022/02/12 05:45:27;;;;;;;4.85;1.65;;;;;;;2.01;61.04;99452.44;5071393;28;20465;-49
2022/02/12 05:47:53;;;;;;;3.75;1.60;;;;;;;2.00;61.25;99454.22;5071923;28;20035;-49
2022/02/12 05:50:19;;;;;;;12.68;2.03;;;;;;;1.97;61.36;99441.19;5068503;28;20032;-50
2022/02/12 05:52:44;;;;;;;3.33;1.73;;;;;;;1.90;61.14;99436.28;5071043;28;20040;-51
2022/02/12 05:55:10;;;;;;;4.85;1.45;;;;;;;2.06;60.36;99457.50;5071453;28;20499;-51
2022/02/12 05:57:35;;;;;;;6.97;2.03;;;;;;;2.05;60.60;99464.56;5071333;28;20017;-53
2022/02/12 06:00:01;;;;;;;4.57;1.73;;;;;;;2.03;60.99;99458.50;5069812;28;20137;-50
2022/02/12 06:02:26;;;;;;;5.00;1.30;;;;;;;2.07;60.69;99453.94;5071409;28;20111;-51
2022/02/12 06:04:52;;;;;;;6.32;1.60;;;;;;;2.08;60.59;99464.41;5072014;28;20021;-55
2022/02/12 06:07:18;;;;;;;3.40;1.50;;;;;;;2.10;60.24;99466.97;5071972;28;20052;-50
2022/02/12 06:09:43;;;;;;;5.82;1.58;;;;;;;2.11;60.58;99464.22;5071549;28;20074;-50
2022/02/12 06:12:09;;;;;;;6.22;1.60;;;;;;;2.18;60.33;99464.78;5071206;28;20028;-52
2022/02/12 06:14:35;;;;;;;6.00;1.60;;;;;;;2.26;60.02;99459.09;5072327;28;20487;-55
2022/02/12 06:17:00;;;;;;;5.25;1.80;;;;;;;2.30;60.24;99463.28;5072429;28;20060;-54
2022/02/12 06:19:26;;;;;;;3.90;1.67;;;;;;;2.31;59.55;99462.34;5071418;28;20465;-56
2022/02/12 06:21:52;;;;;;;3.65;1.80;;;;;;;2.37;59.31;99456.75;5071486;28;20036;-54
2022/02/12 06:24:19;;;;;;;5.82;1.92;;;;;;;2.37;59.12;99461.19;5062756;28;20151;-55
2022/02/12 06:26:54;;;;;;;3.28;1.13;;;;;;;1.82;59.06;99370.72;5050181;28;20039;-55
2022/02/12 06:29:21;;;;;;;4.47;1.65;;;;;;;4.12;56.54;99469.13;5049952;28;20082;-59
2022/02/12 06:31:48;;;;;;;5.75;1.38;;;;;;;6.52;48.16;99463.56;5050696;28;20071;-60
2022/02/12 06:34:13;;;;;;;2.53;1.20;;;;;;;7.17;46.27;99474.09;5050611;28;20029;-55
2022/02/12 06:36:39;;;;;;;3.85;1.30;;;;;;;7.12;45.58;99462.94;5068024;28;20024;-55
2022/02/12 06:39:05;;;;;;;5.00;1.55;;;;;;;6.72;46.43;99464.81;5070398;28;20040;-57
2022/02/12 06:41:30;;;;;;;4.40;1.30;;;;;;;6.12;47.14;99443.25;5053390;28;20074;-56
2022/02/12 06:43:56;;;;;;;3.70;1.00;;;;;;;5.60;48.37;99468.81;5071617;28;20480;-55
2022/02/12 06:46:21;;;;;;;3.83;1.33;;;;;;;5.12;49.34;99486.00;5071621;28;20032;-58
2022/02/12 06:48:47;;;;;;;5.25;1.48;;;;;;;4.58;50.67;99486.69;5070473;28;20032;-56
2022/02/12 06:51:15;;;;;;;4.20;1.13;;;;;;;4.20;52.13;99476.63;5071312;28;20136;-54
2022/02/12 06:53:44;;;;;;;3.78;1.30;;;;;;;4.01;52.67;99472.41;5068304;28;20020;-55
2022/02/12 06:56:10;;;;;;;2.70;1.23;;;;;;;4.08;52.32;99489.63;5069925;28;20028;-55
2022/02/12 06:58:36;;;;;;;2.55;1.10;;;;;;;4.14;51.49;99491.94;5070060;28;20410;-49
2022/02/12 07:01:02;;;;;;;2.45;1.10;;;;;;;4.24;50.49;99494.03;5069716;28;20024;-58
2022/02/12 07:03:28;;;;;;;4.25;0.95;;;;;;;4.13;50.38;99484.94;5070410;28;20032;-55
2022/02/12 07:05:54;;;;;;;3.42;1.00;;;;;;;4.99;48.39;99501.00;5070707;28;20112;-57
2022/02/12 07:08:19;;;;;;;4.90;1.13;;;;;;;5.25;46.62;99486.06;5070728;28;20379;-56
2022/02/12 07:10:45;;;;;;;3.15;0.80;;;;;;;4.70;47.86;99470.03;5070187;28;20032;-57
2022/02/12 07:13:12;;;;;;;2.88;0.95;;;;;;;4.31;48.90;99503.31;5070916;28;20385;-55
2022/02/12 07:15:37;;;;;;;2.95;1.20;;;;;;;3.76;50.52;99512.72;5070626;28;20032;-56
2022/02/12 07:18:03;;;;;;;2.30;1.20;;;;;;;3.33;51.81;99508.91;5070809;28;20128;-55
2022/02/12 07:20:29;;;;;;;5.53;1.60;;;;;;;3.13;53.69;99524.09;5070695;28;20055;-52
2022/02/12 07:22:56;;;;;;;3.83;1.40;;;;;;;3.04;53.96;99523.75;5070745;28;20029;-56
2022/02/12 07:25:21;;;;;;;5.40;1.20;;;;;;;3.00;53.60;99531.84;5070726;28;20086;-55
2022/02/12 07:27:47;;;;;;;5.75;1.50;;;;;;;2.84;53.98;99530.94;5071249;28;20055;-56
2022/02/12 07:30:16;;;;;;;3.15;1.30;;;;;;;2.76;54.65;99535.81;5070533;28;20480;-57
2022/02/12 07:32:43;;;;;;;5.80;1.92;;;;;;;2.75;54.10;99529.66;5070309;28;20032;-55
2022/02/12 07:35:10;;;;;;;4.43;1.50;;;;;;;2.81;54.16;99544.34;5070854;28;20043;-55
2022/02/12 07:37:42;;;;;;;7.47;1.80;;;;;;;2.85;54.60;99540.59;5070733;28;20033;-55
2022/02/12 07:40:08;;;;;;;3.97;2.08;;;;;;;2.91;54.23;99535.00;5070679;28;20052;-58
2022/02/12 07:42:34;;;;;;;4.45;1.55;;;;;;;2.91;54.10;99519.13;5070854;28;20063;-56
2022/02/12 07:45:00;;;;;;;2.80;1.10;;;;;;;3.08;54.15;99541.16;5070859;28;20477;-51
2022/02/12 07:47:25;;;;;;;2.90;1.25;;;;;;;3.23;54.09;99542.97;5070529;28;20034;-51
2022/02/12 07:49:51;;;;;;;5.35;1.67;;;;;;;3.31;53.02;99547.84;5070890;28;20077;-55
2022/02/12 07:52:17;;;;;;;3.85;1.30;;;;;;;3.33;52.56;99558.31;5070956;28;20028;-56
2022/02/12 07:54:43;;;;;;;6.15;1.45;;;;;;;3.36;52.75;99558.16;5070652;28;20029;-61
2022/02/12 07:57:09;;;;;;;4.72;1.50;;;;;;;3.57;52.26;99553.47;5070408;28;20037;-54
2022/02/12 07:59:34;;;;;;;5.47;1.25;;;;;;;4.33;50.13;99562.38;5071290;28;20020;-57
2022/02/12 08:02:00;;;;;;;3.33;1.40;;;;;;;4.89;48.13;99559.94;5070982;28;20059;-55
2022/02/12 08:04:27;;;;;;;3.72;1.50;;;;;;;5.12;47.40;99562.97;5071300;28;20032;-54
2022/02/12 08:09:37;;;;;;;3.67;1.13;;;;;;;5.31;46.97;99570.66;5075344;28;20029;-59
2022/02/12 08:12:24;;;;;;;2.75;1.23;;;;;;;5.56;45.24;99574.41;5057021;28;20028;-55
2022/02/12 08:14:52;;;;;;;3.92;0.98;;;;;;;5.88;44.57;99592.72;5072577;28;20173;-55
2022/02/12 08:17:19;;;;;;;3.92;1.38;;;;;;;6.00;43.54;99593.72;5073220;28;20060;-58
2022/02/12 08:19:46;;;;;;;3.78;1.10;;;;;;;5.53;44.19;99610.91;5056068;28;20055;-53
2022/02/12 08:22:13;;;;;;;2.70;1.08;;;;;;;5.05;46.17;99613.84;5056189;28;20036;-56
2022/02/12 08:24:39;;;;;;;3.15;1.10;;;;;;;4.54;45.46;99610.66;5072600;28;20024;-53
2022/02/12 08:27:05;;;;;;;4.75;1.23;;;;;;;4.09;46.54;99620.34;5073152;28;20098;-57
2022/02/12 08:29:31;;;;;;;1.63;0.98;;;;;;;3.72;46.97;99623.25;5073799;28;20067;-55
2022/02/12 08:31:58;;;;;;;3.05;1.00;;;;;;;3.41;47.22;99612.56;5073640;28;20393;-53
2022/02/12 08:34:25;;;;;;;1.90;0.80;;;;;;;3.13;47.77;99623.75;5072565;28;20043;-59
2022/02/12 08:36:51;;;;;;;2.78;1.05;;;;;;;2.89;47.42;99621.47;5072689;28;20033;-57
2022/02/12 08:39:17;;;;;;;1.92;0.90;;;;;;;2.85;48.18;99641.94;5072206;28;20032;-51
2022/02/12 08:41:43;;;;;;;5.57;1.17;;;;;;;2.89;48.14;99634.69;5073032;28;20124;-57
2022/02/12 08:44:09;;;;;;;2.40;0.85;;;;;;;2.93;47.93;99633.63;5073664;28;20420;-59
2022/02/12 08:46:34;;;;;;;1.75;1.05;;;;;;;3.05;47.83;99633.91;5073219;28;20482;-58
2022/02/12 08:49:00;;;;;;;3.35;1.10;;;;;;;3.20;47.32;99635.75;5073591;28;20386;-54
2022/02/12 08:51:26;;;;;;;2.75;1.33;;;;;;;3.21;46.21;99637.44;5073245;28;20117;-57
2022/02/12 08:53:51;;;;;;;2.95;1.40;;;;;;;3.03;46.34;99630.47;5054886;28;20031;-58
2022/02/12 08:56:17;;;;;;;5.47;1.50;;;;;;;2.94;47.65;99637.09;5071777;28;20025;-56
2022/02/12 08:58:43;;;;;;;4.55;1.40;;;;;;;2.96;47.21;99636.09;5072857;28;20036;-56
2022/02/12 09:01:09;;;;;;;2.95;0.82;;;;;;;2.93;46.75;99654.78;5073128;28;20079;-54
2022/02/12 09:03:35;;;;;;;2.40;1.00;;;;;;;2.92;46.29;99652.19;5068958;28;20021;-55
2022/02/12 09:06:01;;;;;;;1.30;0.85;;;;;;;2.68;46.32;99597.00;5070723;28;20028;-57
2022/02/12 09:08:27;;;;;;;5.45;1.10;;;;;;;2.75;45.72;99626.63;5070407;28;20021;-56
2022/02/12 09:10:53;;;;;;;2.90;1.27;;;;;;;2.78;46.33;99652.91;5070505;28;20550;-55
2022/02/12 09:13:18;;;;;;;6.18;2.45;;;;;;;2.61;47.02;99657.25;5070965;28;20028;-55
2022/02/12 09:15:44;;;;;;;5.00;2.30;;;;;;;2.49;47.62;99663.16;5070665;28;20055;-51
2022/02/12 09:18:10;;;;;;;4.45;2.10;;;;;;;2.42;47.83;99659.97;5070401;28;20457;-51
2022/02/12 09:20:35;;;;;;;4.15;2.00;;;;;;;2.37;48.01;99657.53;5070252;28;20509;-57
2022/02/12 09:23:01;;;;;;;4.10;1.63;;;;;;;2.40;47.87;99667.13;5072456;28;20032;-56
2022/02/12 09:25:27;;;;;;;2.53;1.33;;;;;;;2.36;47.81;99660.28;5071802;28;20021;-54
2022/02/12 09:27:53;;;;;;;2.95;1.15;;;;;;;2.26;46.86;99654.59;5072501;28;20051;-52
2022/02/12 09:30:19;;;;;;;2.92;1.02;;;;;;;2.35;46.38;99659.41;5072380;28;20024;-56
2022/02/12 09:32:45;;;;;;;3.05;1.02;;;;;;;2.48;45.46;99664.94;5071992;28;20070;-54
2022/02/12 09:35:11;;;;;;;1.20;0.57;;;;;;;2.63;45.04;99654.53;5054289;28;20027;-56
2022/02/12 09:37:36;;;;;;;4.03;0.60;;;;;;;2.91;44.17;99659.28;5072183;28;20078;-57
2022/02/12 09:40:04;;;;;;;1.05;0.55;;;;;;;3.09;43.24;99625.72;5070973;28;20223;-57
2022/02/12 09:42:30;;;;;;;1.67;0.52;;;;;;;3.51;42.83;99663.19;5068773;28;20031;-54
2022/02/12 09:44:56;;;;;;;1.45;0.50;;;;;;;3.59;42.45;99668.09;5070427;28;20104;-55
2022/02/12 09:47:36;;;;;;;3.00;0.55;;;;;;;3.54;42.20;99670.97;5072418;28;20103;-57
2022/02/12 09:50:01;;;;;;;2.72;0.82;;;;;;;3.39;42.18;99646.19;5071006;28;20102;-56
2022/02/12 09:52:31;;;;;;;2.75;1.00;;;;;;;3.39;42.88;99667.34;5071846;28;20028;-52
2022/02/12 09:54:57;;;;;;;3.00;0.80;;;;;;;3.30;42.75;99668.69;5072177;28;20032;-54
2022/02/12 09:57:22;;;;;;;1.92;0.70;;;;;;;3.23;43.17;99675.25;5072036;28;20024;-51
2022/02/12 09:59:48;;;;;;;1.92;0.77;;;;;;;3.18;42.74;99668.50;5071594;28;20025;-54
2022/02/12 10:02:19;;;;;;;1.10;0.50;;;;;;;3.16;41.95;99697.69;5071509;28;20021;-58
2022/02/12 10:04:45;;;;;;;1.80;0.50;;;;;;;3.09;41.49;99698.91;5071847;28;20036;-54
2022/02/12 10:07:23;;;;;;;0.90;0.45;;;;;;;3.05;40.90;99655.06;5072171;28;20025;-58
2022/02/12 10:10:11;;;;;;;1.17;0.35;;;;;;;3.21;41.52;99690.38;5071376;28;20046;-52
2022/02/12 10:12:37;;;;;;;1.58;0.35;;;;;;;3.08;40.03;99679.56;5069898;28;20031;-52
2022/02/12 10:15:04;;;;;;;0.77;0.43;;;;;;;3.26;40.76;99690.13;5072368;28;20024;-54
2022/02/12 10:17:29;;;;;;;1.42;0.50;;;;;;;3.40;39.82;99705.28;5072034;28;20041;-55
2022/02/12 10:19:54;;;;;;;4.10;1.00;;;;;;;3.62;39.97;99704.97;5071418;28;20020;-55
2022/02/12 10:22:21;;;;;;;2.70;0.65;;;;;;;3.50;39.54;99656.19;5071422;28;20025;-50
2022/02/12 10:24:50;;;;;;;1.92;0.40;;;;;;;3.58;38.83;99661.91;5037025;28;20032;-58
2022/02/12 10:27:19;;;;;;;2.08;0.40;;;;;;;3.79;38.76;99703.22;5071468;28;20029;-51
2022/02/12 10:29:47;;;;;;;1.50;0.40;;;;;;;3.72;38.00;99695.59;5071205;28;20043;-51
2022/02/12 10:32:21;;;;;;;2.60;0.52;;;;;;;3.78;38.90;99699.69;5071500;28;20030;-50
2022/02/12 10:34:49;;;;;;;2.85;0.60;;;;;;;3.82;37.83;99668.63;5071571;28;20038;-52
2022/02/12 10:37:23;;;;;;;1.02;0.47;;;;;;;4.18;38.25;99707.25;5071825;28;20033;-56
2022/02/12 10:40:00;;;;;;;1.55;0.60;;;;;;;4.39;38.36;99699.03;5067950;28;20036;-53
2022/02/12 10:42:28;;;;;;;2.17;0.40;;;;;;;4.40;37.64;99700.72;5070926;28;20029;-53
2022/02/12 10:44:54;;;;;;;0.85;0.35;;;;;;;4.49;38.03;99702.88;5071477;28;20050;-54
2022/02/12 10:47:21;;;;;;;1.75;0.55;;;;;;;4.59;37.41;99700.53;5070866;28;20111;-54
2022/02/12 10:49:47;;;;;;;0.70;0.40;;;;;;;4.49;37.42;99656.94;5070187;28;20028;-56
2022/02/12 10:52:14;;;;;;;1.15;0.57;;;;;;;4.82;37.42;99706.28;5070758;28;20028;-55
2022/02/12 10:54:48;;;;;;;1.38;0.43;;;;;;;4.93;38.36;99695.91;5070783;28;20024;-56
2022/02/12 10:57:15;;;;;;;1.60;0.60;;;;;;;4.90;37.44;99693.44;5052236;28;20029;-56
2022/02/12 10:59:44;;;;;;;2.45;0.57;;;;;;;4.92;36.50;99695.97;5067833;28;20028;-57
2022/02/12 11:02:17;;;;;;;0.38;0.30;;;;;;;4.74;36.53;99701.44;5071082;28;20033;-56
2022/02/12 11:04:44;;;;;;;1.35;0.47;;;;;;;4.54;36.85;99702.59;5068577;28;20048;-51
2022/02/12 11:07:18;;;;;;;0.98;0.40;;;;;;;4.38;37.78;99702.63;5070562;28;20115;-56
2022/02/12 11:09:45;;;;;;;1.25;0.50;;;;;;;4.26;37.38;99705.03;5068589;28;20036;-53
2022/02/12 11:12:12;;;;;;;2.63;0.80;;;;;;;4.09;38.55;99708.59;5070646;28;20059;-51
2022/02/12 11:14:38;;;;;;;1.77;0.70;;;;;;;3.98;38.42;99708.34;5070576;28;20043;-54
2022/02/12 11:17:10;;;;;;;1.70;0.80;;;;;;;3.95;39.43;99711.19;5070748;28;20474;-55
2022/02/12 11:19:37;;;;;;;1.20;0.50;;;;;;;3.82;38.75;99709.19;5053219;28;20423;-54
2022/02/12 11:22:04;;;;;;;1.15;0.40;;;;;;;3.75;38.92;99718.41;5070053;28;20029;-55
2022/02/12 11:24:35;;;;;;;2.05;1.05;;;;;;;3.75;40.43;99715.75;5070733;28;20067;-56
2022/02/12 11:27:15;;;;;;;2.45;0.80;;;;;;;3.91;40.70;99715.78;5070613;28;20073;-55
2022/02/12 11:29:40;;;;;;;2.47;0.60;;;;;;;4.11;39.14;99722.66;5035552;28;20040;-53
2022/02/12 11:32:22;;;;;;;2.08;0.70;;;;;;;4.33;39.64;99720.59;5069965;28;20016;-54
2022/02/12 11:35:03;;;;;;;3.03;0.85;;;;;;;4.35;39.11;99721.34;5071255;28;20094;-56
2022/02/12 11:37:34;;;;;;;1.88;0.88;;;;;;;4.26;39.13;99722.72;5069670;28;20036;-57
2022/02/12 11:40:10;;;;;;;1.77;1.00;;;;;;;4.23;39.96;99733.50;5069494;28;20078;-52
2022/02/12 11:42:43;;;;;;;3.63;1.00;;;;;;;4.07;39.85;99731.69;5068891;28;20036;-62
2022/02/12 11:45:16;;;;;;;1.17;0.52;;;;;;;3.95;39.97;99733.22;5067728;28;20040;-54
2022/02/12 11:48:36;;;;;;;2.90;0.70;;;;;;;3.64;40.85;99736.69;5069941;28;20036;-64